THY12 KJFK-LTFM
Flight info
| Callsign | THY12 |
|---|---|
| Flight time | N/A |
| Altitude | 33000 |
| Route | MERIT DCT HFD DCT PUT DCT EBONY DCT TUDEP/M081F330 DCT 52N050W 54N040W 56N030W 5630N02000W DCT BILTO/N0466F330 DCT BEGID DCT AMLAD DCT MOXDE DCT GODOS DCT AMGOD DCT TIVUN DCT ESAMA DCT OSBIT DCT TENLO DCT LAMSI DCT SASAL DCT BABIT DCT ESIRI DCT ETIDA T390 RILEX RILEX1A/35R |
| Aircraft | B77W/H-SDE1E2E3FGHIJ2J3J4J5M1RWXY/LB1D1 |
Departure
| Time | N/A |
|---|---|
| Airport | John F. Kennedy International Airport (KJFK) |
Arrival
| Time | 2026-05-04 14:19 |
|---|---|
| Airport | İstanbul Airport (LTFM) |
| Time | Latitude | Longitude | Altitude | Speed | Heading |
|---|---|---|---|---|---|
| 2026-05-04 14:05 | 41.11493 | 28.23208 | 14693 ft | 312 kts | 133° |
| 2026-05-04 14:05 | 41.09833 | 28.25056 | 14384 ft | 311 kts | 133° |
| 2026-05-04 14:06 | 41.08178 | 28.26895 | 14080 ft | 310 kts | 132° |
| 2026-05-04 14:06 | 41.06530 | 28.28725 | 13772 ft | 309 kts | 132° |
| 2026-05-04 14:06 | 41.05974 | 28.29344 | 13635 ft | 309 kts | 132° |
| 2026-05-04 14:07 | 41.01832 | 28.33941 | 12758 ft | 307 kts | 133° |
| 2026-05-04 14:07 | 41.00196 | 28.35752 | 12452 ft | 304 kts | 133° |
| 2026-05-04 14:07 | 40.98593 | 28.37523 | 12315 ft | 297 kts | 134° |
| 2026-05-04 14:07 | 40.97167 | 28.39374 | 12035 ft | 279 kts | 116° |
| 2026-05-04 14:08 | 40.96223 | 28.41566 | 11716 ft | 272 kts | 110° |
| 2026-05-04 14:08 | 40.95319 | 28.43767 | 11409 ft | 272 kts | 111° |
| 2026-05-04 14:08 | 40.94401 | 28.45956 | 11088 ft | 273 kts | 111° |
| 2026-05-04 14:08 | 40.93471 | 28.48146 | 10771 ft | 273 kts | 111° |
| 2026-05-04 14:09 | 40.91574 | 28.52562 | 10009 ft | 280 kts | 113° |
| 2026-05-04 14:09 | 40.90598 | 28.54824 | 9409 ft | 285 kts | 114° |
| 2026-05-04 14:10 | 40.89415 | 28.59613 | 7897 ft | 269 kts | 74° |
| 2026-05-04 14:10 | 40.89920 | 28.61942 | 7174 ft | 263 kts | 63° |
| 2026-05-04 14:10 | 40.90528 | 28.64235 | 6453 ft | 266 kts | 64° |
| 2026-05-04 14:10 | 40.91133 | 28.66560 | 5710 ft | 268 kts | 65° |
| 2026-05-04 14:11 | 40.91908 | 28.68706 | 5301 ft | 246 kts | 45° |
| 2026-05-04 14:11 | 40.94412 | 28.70995 | 5018 ft | 202 kts | 25° |
| 2026-05-04 14:11 | 40.95610 | 28.71879 | 5010 ft | 190 kts | 24° |
| 2026-05-04 14:12 | 40.96780 | 28.72738 | 5024 ft | 195 kts | 24° |
| 2026-05-04 14:12 | 40.98041 | 28.73288 | 5008 ft | 191 kts | 5° |
| 2026-05-04 14:12 | 41.00726 | 28.73312 | 5007 ft | 197 kts | 358° |
| 2026-05-04 14:13 | 41.02096 | 28.73274 | 5000 ft | 195 kts | 358° |
| 2026-05-04 14:13 | 41.03447 | 28.73239 | 5014 ft | 193 kts | 358° |
| 2026-05-04 14:13 | 41.04791 | 28.73219 | 4935 ft | 192 kts | 359° |
| 2026-05-04 14:13 | 41.06145 | 28.73234 | 4463 ft | 196 kts | 0° |
| 2026-05-04 14:14 | 41.07498 | 28.73240 | 3955 ft | 190 kts | 358° |
| 2026-05-04 14:14 | 41.09899 | 28.73181 | 3379 ft | 160 kts | 358° |
| 2026-05-04 14:14 | 41.10982 | 28.73100 | 3190 ft | 158 kts | 358° |
| 2026-05-04 14:15 | 41.13209 | 28.72989 | 2922 ft | 162 kts | 358° |
| 2026-05-04 14:15 | 41.15381 | 28.72930 | 2543 ft | 155 kts | 359° |
| 2026-05-04 14:16 | 41.17542 | 28.72823 | 1978 ft | 159 kts | 358° |
| 2026-05-04 14:16 | 41.18681 | 28.72746 | 1822 ft | 161 kts | 359° |
| 2026-05-04 14:17 | 41.20692 | 28.72781 | 1313 ft | 130 kts | 4° |
| 2026-05-04 14:17 | 41.21546 | 28.72872 | 1124 ft | 120 kts | 2° |
| 2026-05-04 14:17 | 41.23243 | 28.72864 | 1019 ft | 125 kts | 356° |
| 2026-05-04 14:18 | 41.24135 | 28.72794 | 842 ft | 131 kts | 357° |
| 2026-05-04 14:18 | 41.25850 | 28.72791 | 426 ft | 119 kts | 355° |
| 2026-05-04 14:19 | 41.27410 | 28.72755 | 300 ft | 86 kts | 358° |
| 2026-05-04 14:19 | 41.27869 | 28.72743 | 283 ft | 59 kts | 359° |
| 2026-05-04 14:19 | 41.28174 | 28.72738 | 274 ft | 32 kts | 360° |
| 2026-05-04 14:19 | 41.28378 | 28.72820 | 269 ft | 29 kts | 28° |
| 2026-05-04 14:20 | 41.28435 | 28.72868 | 270 ft | 0 kts | 41° |
| 2026-05-04 14:21 | 41.28444 | 28.72878 | 269 ft | 3 kts | 45° |
| 2026-05-04 14:21 | 41.28453 | 28.72904 | 270 ft | 4 kts | 70° |
| 2026-05-04 14:21 | 41.28452 | 28.72941 | 270 ft | 4 kts | 108° |
| 2026-05-04 14:21 | 41.28429 | 28.72965 | 272 ft | 4 kts | 158° |
| 2026-05-04 14:22 | 41.28397 | 28.72974 | 271 ft | 5 kts | 167° |
| 2026-05-04 14:22 | 41.28359 | 28.72978 | 272 ft | 6 kts | 181° |
| 2026-05-04 14:22 | 41.28316 | 28.72978 | 274 ft | 7 kts | 180° |
| 2026-05-04 14:22 | 41.28258 | 28.72978 | 276 ft | 10 kts | 180° |
| 2026-05-04 14:23 | 41.28086 | 28.72979 | 282 ft | 15 kts | 180° |
| 2026-05-04 14:23 | 41.27976 | 28.72974 | 286 ft | 16 kts | 186° |
| 2026-05-04 14:23 | 41.27862 | 28.72969 | 291 ft | 16 kts | 178° |
| 2026-05-04 14:24 | 41.27749 | 28.72972 | 297 ft | 16 kts | 179° |
| 2026-05-04 14:24 | 41.27635 | 28.72974 | 302 ft | 16 kts | 179° |
| 2026-05-04 14:24 | 41.27522 | 28.72977 | 306 ft | 16 kts | 179° |
| 2026-05-04 14:24 | 41.27408 | 28.72980 | 307 ft | 16 kts | 179° |
| 2026-05-04 14:25 | 41.27294 | 28.72982 | 308 ft | 16 kts | 179° |
| 2026-05-04 14:25 | 41.27068 | 28.72987 | 311 ft | 16 kts | 179° |
| 2026-05-04 14:25 | 41.26954 | 28.72989 | 313 ft | 16 kts | 179° |
| 2026-05-04 14:26 | 41.26857 | 28.73038 | 314 ft | 16 kts | 110° |
| 2026-05-04 14:26 | 41.26866 | 28.73191 | 318 ft | 16 kts | 88° |
| 2026-05-04 14:26 | 41.26868 | 28.73343 | 318 ft | 16 kts | 89° |
| 2026-05-04 14:26 | 41.26871 | 28.73494 | 318 ft | 16 kts | 88° |
| 2026-05-04 14:27 | 41.26859 | 28.73605 | 318 ft | 7 kts | 135° |
| 2026-05-04 14:27 | 41.26810 | 28.73620 | 318 ft | 5 kts | 177° |
| 2026-05-04 14:27 | 41.26791 | 28.73620 | 318 ft | 1 kts | 177° |
| 2026-05-04 14:27 | 41.26784 | 28.73621 | 318 ft | 2 kts | 179° |
| 2026-05-04 14:28 | 41.26775 | 28.73621 | 318 ft | 0 kts | 179° |